createdAt,value
2022-11-29T18:51:21.457Z,33.40
2022-11-29T18:52:21.389Z,60.90
2022-11-29T18:53:21.332Z,76.20
2022-11-29T18:54:21.279Z,83.20
2022-11-29T18:55:21.224Z,80.10
2022-11-29T18:56:21.179Z,89.90
2022-11-29T18:57:21.124Z,87.90
2022-11-29T18:58:21.074Z,92.50
2022-11-29T19:00:20.975Z,92.10
2022-11-29T19:01:20.985Z,90.30
2022-11-29T19:02:20.959Z,92.20
2022-11-29T19:03:20.831Z,99.70
2022-11-29T19:04:20.788Z,84.60
2022-11-29T19:05:20.738Z,95.90
2022-11-29T19:06:20.685Z,93.20
2022-11-29T19:07:20.680Z,93.80
2022-11-29T19:08:20.591Z,96.10
2022-11-29T19:09:20.546Z,89.70
2022-11-29T19:10:20.498Z,94.50
2022-11-29T19:11:20.451Z,88.90
2022-11-29T19:12:20.409Z,105.10
2022-11-29T19:13:20.364Z,94.00
2022-11-29T19:14:20.308Z,97.30
2022-11-29T19:15:20.265Z,94.80
2022-11-29T19:16:20.260Z,111.40
2022-11-29T19:17:20.189Z,100.10
2022-11-29T19:18:20.130Z,108.10
2022-11-29T19:19:20.283Z,115.20
2022-11-29T19:20:20.027Z,118.20
2022-11-29T19:21:19.987Z,109.70
2022-11-29T19:22:19.936Z,111.00
2022-11-29T19:23:19.922Z,108.60
2022-11-29T19:24:19.846Z,98.00
2022-11-29T19:25:19.812Z,107.70
2022-11-29T19:26:19.759Z,104.40
2022-11-29T19:27:19.702Z,102.90
2022-11-29T19:28:19.664Z,105.40
2022-11-29T19:29:19.627Z,109.40
2022-11-29T19:30:19.563Z,111.80
2022-11-29T19:31:19.595Z,108.80
2022-11-29T19:32:19.474Z,104.60
2022-11-29T19:33:19.447Z,106.80
2022-11-29T19:34:19.375Z,104.20
2022-11-29T19:35:19.339Z,109.00
2022-11-29T19:36:19.293Z,99.70
2022-11-29T19:37:19.256Z,102.20
2022-11-29T19:38:19.200Z,105.30
2022-11-29T19:39:19.167Z,113.00
2022-11-29T19:40:19.114Z,120.40
2022-11-29T19:41:19.059Z,120.20
2022-11-29T19:42:19.014Z,126.50
2022-11-29T19:43:18.985Z,123.50
2022-11-29T19:44:18.935Z,118.40
2022-11-29T19:45:18.921Z,125.10
2022-11-29T19:46:19.003Z,119.10
2022-11-29T19:47:18.793Z,119.90
2022-11-29T19:48:18.737Z,121.40
2022-11-29T19:49:18.695Z,123.20
2022-11-29T19:50:18.651Z,120.40
2022-11-29T19:51:18.619Z,105.90
2022-11-29T19:52:18.563Z,113.00
2022-11-29T19:53:18.523Z,116.90
2022-11-29T19:54:18.468Z,103.70
2022-11-29T19:55:18.468Z,107.60
2022-11-29T19:56:18.379Z,104.20
2022-11-29T19:57:18.343Z,109.40
2022-11-29T19:58:18.288Z,109.00
2022-11-29T19:59:18.247Z,107.20
2022-11-29T20:00:18.187Z,101.90
2022-11-29T20:01:18.202Z,103.90
2022-11-29T20:02:18.220Z,110.70
2022-11-29T20:03:18.057Z,106.20
2022-11-29T20:04:18.015Z,106.50
2022-11-29T20:05:17.977Z,112.60
2022-11-29T20:06:17.917Z,105.60
2022-11-29T20:07:17.924Z,112.50
2022-11-29T20:08:21.269Z,112.80
2022-11-29T20:09:17.800Z,106.30
2022-11-29T20:10:17.732Z,110.90
2022-11-29T20:12:17.676Z,110.60
2022-11-29T20:13:17.621Z,108.40
2022-11-29T20:14:17.562Z,111.40
2022-11-29T20:15:17.516Z,111.70
2022-11-29T20:16:17.509Z,106.30
2022-11-29T20:17:17.420Z,113.90
2022-11-29T20:18:17.369Z,111.10
2022-11-29T20:19:17.354Z,122.50
2022-11-29T20:21:17.230Z,104.20
2022-11-29T20:22:17.200Z,102.60
2022-11-29T20:23:17.157Z,103.50
2022-11-29T20:24:17.111Z,92.60
2022-11-29T20:25:17.058Z,108.90
2022-11-29T20:26:17.031Z,99.60
2022-11-29T20:27:16.969Z,108.60
2022-11-29T20:28:16.976Z,110.80
2022-11-29T20:29:16.890Z,105.10
2022-11-29T20:30:16.840Z,106.80
2022-11-29T20:31:16.880Z,95.90
2022-11-29T20:32:16.728Z,99.80
2022-11-29T20:34:16.644Z,102.40
2022-11-29T20:35:16.603Z,105.20
2022-11-29T20:36:16.576Z,105.90
2022-11-29T20:37:16.497Z,107.90
2022-11-29T20:38:16.455Z,110.10
2022-11-29T20:39:16.410Z,109.20
2022-11-29T20:40:16.365Z,107.80
2022-11-29T20:41:16.325Z,103.30
2022-11-29T20:42:16.281Z,105.60
2022-11-29T20:43:16.233Z,115.00
2022-11-29T20:44:16.405Z,107.40
2022-11-29T20:45:16.154Z,120.50
2022-11-29T20:46:16.167Z,107.70
2022-11-29T20:47:16.061Z,107.60
2022-11-29T20:48:16.015Z,108.20
2022-11-29T20:49:15.955Z,111.00
2022-11-29T20:50:19.428Z,108.10
2022-11-29T20:51:15.864Z,106.40
2022-11-29T20:52:15.864Z,109.90
2022-11-29T20:53:15.815Z,106.00
2022-11-29T20:54:15.737Z,111.20
2022-11-29T20:55:15.684Z,109.90
2022-11-29T20:57:15.586Z,111.60
2022-11-29T20:58:15.546Z,107.00
2022-11-29T20:59:15.502Z,111.20
2022-11-29T21:00:15.484Z,104.10
2022-11-29T21:01:15.502Z,112.70
2022-11-29T21:02:15.364Z,106.60
2022-11-29T21:03:15.431Z,109.70
2022-11-29T21:04:20.163Z,102.90
2022-11-29T21:05:15.223Z,107.20
2022-11-29T21:06:15.203Z,104.30
2022-11-29T21:07:15.128Z,104.70
2022-11-29T21:08:15.091Z,100.70
2022-11-29T21:09:15.045Z,113.10
2022-11-29T21:10:15.088Z,103.90
2022-11-29T21:11:14.942Z,106.50
2022-11-29T21:12:14.943Z,102.40
2022-11-29T21:13:14.860Z,102.60
2022-11-29T21:14:14.813Z,108.00
2022-11-29T21:15:14.765Z,108.20
2022-11-29T21:16:14.833Z,106.00
2022-11-29T21:17:14.702Z,109.20
2022-11-29T21:18:14.635Z,98.00
2022-11-29T21:19:14.578Z,102.40
2022-11-29T21:20:14.530Z,101.80
2022-11-29T21:21:14.487Z,105.40
2022-11-29T21:22:14.449Z,112.30
2022-11-29T21:23:14.405Z,103.00
2022-11-29T21:24:14.348Z,100.70
2022-11-29T21:25:14.313Z,113.60
2022-11-29T21:26:14.257Z,110.90
2022-11-29T21:27:14.212Z,104.20
2022-11-29T21:28:14.167Z,103.50
2022-11-29T21:29:14.122Z,102.50
2022-11-29T21:30:14.074Z,103.50
2022-11-29T21:31:14.048Z,101.50
2022-11-29T21:32:19.116Z,102.90
2022-11-29T21:33:13.939Z,94.60
2022-11-29T21:34:13.909Z,97.30
2022-11-29T21:35:13.856Z,97.90
2022-11-29T21:36:13.799Z,90.00
2022-11-29T21:37:13.763Z,95.10
2022-11-29T21:38:13.708Z,94.00
2022-11-29T21:39:13.664Z,87.30
2022-11-29T21:40:13.616Z,98.70
2022-11-29T21:41:13.584Z,94.40
2022-11-29T21:42:13.727Z,99.40
2022-11-29T21:43:13.492Z,96.10
2022-11-29T21:44:13.449Z,97.40
2022-11-29T21:45:15.677Z,97.70
2022-11-29T21:46:13.413Z,97.70
2022-11-29T21:47:13.296Z,98.00
2022-11-29T21:48:13.266Z,93.40
2022-11-29T21:49:13.206Z,90.60
2022-11-29T21:50:13.156Z,91.40
2022-11-29T21:51:13.113Z,97.30
2022-11-29T21:52:17.691Z,101.00
2022-11-29T21:53:13.027Z,93.40
2022-11-29T21:54:12.978Z,97.20
2022-11-29T21:55:12.932Z,108.90
2022-11-29T21:56:12.892Z,102.60
2022-11-29T21:57:12.841Z,100.20
2022-11-29T21:58:12.796Z,101.00
2022-11-29T21:59:12.750Z,96.20
2022-11-29T22:00:12.701Z,107.90
2022-11-29T22:01:12.658Z,99.30
2022-11-29T22:02:12.762Z,110.10
2022-11-29T22:03:12.568Z,96.90
2022-11-29T22:04:12.542Z,96.50
2022-11-29T22:05:12.475Z,99.20
2022-11-29T22:06:12.430Z,95.60
2022-11-29T22:07:12.383Z,105.70
2022-11-29T22:08:12.344Z,102.70
2022-11-29T22:09:12.298Z,114.10
2022-11-29T22:10:13.608Z,102.10
2022-11-29T22:11:12.209Z,103.40
2022-11-29T22:12:32.476Z,104.80
2022-11-29T22:13:12.111Z,100.10
2022-11-29T22:14:12.069Z,106.40
2022-11-29T22:15:12.017Z,103.10
2022-11-29T22:16:12.054Z,102.10
2022-11-29T22:17:11.927Z,105.30
2022-11-29T22:18:11.883Z,100.70
2022-11-29T22:19:11.838Z,102.20
2022-11-29T22:20:11.807Z,104.50
2022-11-29T22:21:11.745Z,104.60
2022-11-29T22:22:11.698Z,106.80
2022-11-29T22:23:11.653Z,106.90
2022-11-29T22:24:11.606Z,99.20
2022-11-29T22:25:11.564Z,113.00
2022-11-29T22:26:11.514Z,100.80
2022-11-29T22:27:11.473Z,115.60
2022-11-29T22:28:11.424Z,120.10
2022-11-29T22:29:11.383Z,87.60
2022-11-29T22:30:11.334Z,89.40
2022-11-29T22:31:11.374Z,100.70
2022-11-29T22:32:11.239Z,104.50
2022-11-29T22:33:13.455Z,102.30
2022-11-29T22:34:11.151Z,95.50
2022-11-29T22:35:11.106Z,117.70
2022-11-29T22:36:11.075Z,102.90
2022-11-29T22:37:11.013Z,103.00
2022-11-29T22:38:10.967Z,105.00
2022-11-29T22:39:10.927Z,102.40
2022-11-29T22:40:10.874Z,110.40
2022-11-29T22:41:10.833Z,110.00
2022-11-29T22:42:10.787Z,104.40
2022-11-29T22:43:10.742Z,102.60
2022-11-29T22:44:10.696Z,102.90
2022-11-29T22:45:10.653Z,104.80
2022-11-29T22:46:10.607Z,116.80
2022-11-29T22:47:10.759Z,125.70
2022-11-29T22:48:10.576Z,94.30
2022-11-29T22:49:10.471Z,99.20
2022-11-29T22:50:10.424Z,101.70
2022-11-29T22:51:10.376Z,105.30
2022-11-29T22:52:10.351Z,102.90
2022-11-29T22:53:10.282Z,108.90
2022-11-29T22:54:10.236Z,99.40
2022-11-29T22:55:10.196Z,99.20
2022-11-29T22:56:10.147Z,99.00
2022-11-29T22:57:10.101Z,110.30
2022-11-29T22:58:10.056Z,103.30
2022-11-29T22:59:10.008Z,99.40
2022-11-29T23:00:09.963Z,95.80
2022-11-29T23:01:09.991Z,108.80
2022-11-29T23:02:09.963Z,106.40
2022-11-29T23:03:09.831Z,102.20
2022-11-29T23:04:09.782Z,103.50
2022-11-29T23:05:09.735Z,104.50
2022-11-29T23:06:09.690Z,99.20
2022-11-29T23:07:09.649Z,97.90
2022-11-29T23:08:09.620Z,114.20
2022-11-29T23:09:09.556Z,110.20
2022-11-29T23:10:09.507Z,108.60
2022-11-29T23:11:09.459Z,109.80
2022-11-29T23:12:09.419Z,105.60
2022-11-29T23:13:09.373Z,108.40
2022-11-29T23:14:09.328Z,100.80
